LiveATC.Net - Listen to live air traffic control over the Internet!


ICAO: KCEC  IATA: CEC   Airport: Jack Mc Namara Field Airport
City: Crescent City   State/Province: California
Country: United States   Continent: North America
KCEC METAR Weather: KCEC 082256Z AUTO 21005KT 6SM HZ SCT080 BKN090 08/06 A3011 RMK AO2 SLP198 T00830056
KCEC ADS-B Flight Tracking (ADSBExchange)
KCEC Flight Activity (FlightAware)
KCEC Airport Info   (iFlightPlanner)
KCEC VFR Sectional Chart   (iFlightPlanner) 
KCEC IFR Low Altitude Chart   (iFlightPlanner) 
KCEC IFR High Altitude Chart   (iFlightPlanner) 

KBOK/KCEC CTAF
Feed Status: UP   Listeners: 0
Listen in your browser - HTML5 player (in browser, HTML5)
Click here to listen with your own player (launches your MP3 player)
Archive Access: KBOK/KCEC CTAF
FacilityFrequency
Brookings/Crescent City CTAF122.800

NOTICE

Unauthorized use prohibited. See LiveATC.net Terms of Service


Airport/ARTCC Code
Frequency Search
(e.g., 124.400, 128.75)
Site-wide search
 


Browse Feeds
Top 50 Feeds
HF Oceanic Feeds
Coverage Map
Bad Weather Areas

LiveATC FAQ
Offer LiveATC feed
Contact LiveATC.net
Press Inquiries

LiveATC on iPhone
LiveATC on Android

LiveATC Mobile
(Mobile browser)

ATC Audio Archives
Interesting Recordings

LiveATC Forums


Home Page
About LiveATC.net


Terms of Use
Privacy Policy

AIRMETs/SIGMETs

FAA Airport Status
NAS Status
Arrival Demand


Server Software By:
Icecast.org
Liquidsoap